sensor_id;sensor_type;location;lat;lon;timestamp;pressure;altitude;pressure_sealevel;temperature;humidity
55656;BME280;41530;52.382;5.270;2022-08-03T00:01:47;101672.53;;;25.81;49.46
55656;BME280;41530;52.382;5.270;2022-08-03T00:04:14;101675.22;;;25.81;49.55
55656;BME280;41530;52.382;5.270;2022-08-03T00:06:41;101675.22;;;25.81;49.58
55656;BME280;41530;52.382;5.270;2022-08-03T00:09:08;101672.53;;;25.81;49.67
55656;BME280;41530;52.382;5.270;2022-08-03T00:11:34;101669.19;;;25.79;49.92
55656;BME280;41530;52.382;5.270;2022-08-03T00:14:03;101674.56;;;25.79;49.50
55656;BME280;41530;52.382;5.270;2022-08-03T00:16:30;101669.34;;;25.77;49.44
55656;BME280;41530;52.382;5.270;2022-08-03T00:18:57;101669.53;;;25.76;49.72
55656;BME280;41530;52.382;5.270;2022-08-03T00:21:26;101673.91;;;25.77;49.39
55656;BME280;41530;52.382;5.270;2022-08-03T00:23:52;101671.22;;;25.77;49.56
55656;BME280;41530;52.382;5.270;2022-08-03T00:26:20;101671.22;;;25.77;49.78
55656;BME280;41530;52.382;5.270;2022-08-03T00:28:48;101671.41;;;25.75;49.35
55656;BME280;41530;52.382;5.270;2022-08-03T00:31:14;101667.03;;;25.74;49.59
55656;BME280;41530;52.382;5.270;2022-08-03T00:33:41;101670.75;;;25.73;49.58
55656;BME280;41530;52.382;5.270;2022-08-03T00:36:25;101668.22;;;25.72;49.64
55656;BME280;41530;52.382;5.270;2022-08-03T00:38:52;101668.41;;;25.70;49.54
55656;BME280;41530;52.382;5.270;2022-08-03T00:41:19;101669.25;;;25.71;49.60
55656;BME280;41530;52.382;5.270;2022-08-03T00:43:45;101658.69;;;25.69;49.49
55656;BME280;41530;52.382;5.270;2022-08-03T00:46:13;101675.69;;;25.70;49.72
55656;BME280;41530;52.382;5.270;2022-08-03T00:48:46;101673.63;;;25.72;49.69
55656;BME280;41530;52.382;5.270;2022-08-03T00:51:12;101670.09;;;25.71;49.50
55656;BME280;41530;52.382;5.270;2022-08-03T00:53:39;101661.16;;;25.71;49.68
55656;BME280;41530;52.382;5.270;2022-08-03T00:56:06;101660.31;;;25.70;49.88
55656;BME280;41530;52.382;5.270;2022-08-03T00:58:32;101661.16;;;25.71;49.69
55656;BME280;41530;52.382;5.270;2022-08-03T01:00:59;101659.22;;;25.65;50.10
55656;BME280;41530;52.382;5.270;2022-08-03T01:03:26;101661.44;;;25.61;49.91
55656;BME280;41530;52.382;5.270;2022-08-03T01:08:53;101649.91;;;25.52;50.12
55656;BME280;41530;52.382;5.270;2022-08-03T01:11:35;101653.81;;;25.50;50.53
55656;BME280;41530;52.382;5.270;2022-08-03T01:14:27;101643.75;;;25.44;50.67
55656;BME280;41530;52.382;5.270;2022-08-03T01:17:00;101644.97;;;25.41;50.76
55656;BME280;41530;52.382;5.270;2022-08-03T01:24:52;101637.25;;;25.38;50.83
55656;BME280;41530;52.382;5.270;2022-08-03T01:27:26;101637.09;;;25.40;50.42
55656;BME280;41530;52.382;5.270;2022-08-03T01:29:59;101638.94;;;25.39;50.45
55656;BME280;41530;52.382;5.270;2022-08-03T01:32:38;101632.06;;;25.37;50.62
55656;BME280;41530;52.382;5.270;2022-08-03T01:35:49;101643.84;;;25.36;50.94
55656;BME280;41530;52.382;5.270;2022-08-03T01:38:26;101638.81;;;25.33;50.53
55656;BME280;41530;52.382;5.270;2022-08-03T01:40:55;101639.84;;;25.32;50.67
55656;BME280;41530;52.382;5.270;2022-08-03T01:43:26;101639.00;;;25.31;50.88
55656;BME280;41530;52.382;5.270;2022-08-03T01:46:15;101630.84;;;25.25;50.94
55656;BME280;41530;52.382;5.270;2022-08-03T01:48:43;101631.19;;;25.21;50.80
55656;BME280;41530;52.382;5.270;2022-08-03T01:51:12;101630.72;;;25.18;51.14
55656;BME280;41530;52.382;5.270;2022-08-03T01:53:40;101625.53;;;25.16;50.50
55656;BME280;41530;52.382;5.270;2022-08-03T01:56:11;101631.72;;;25.17;50.84
55656;BME280;41530;52.382;5.270;2022-08-03T01:58:39;101627.19;;;25.17;50.68
55656;BME280;41530;52.382;5.270;2022-08-03T02:01:08;101622.63;;;25.18;50.56
55656;BME280;41530;52.382;5.270;2022-08-03T02:03:37;101621.63;;;25.19;50.79
55656;BME280;41530;52.382;5.270;2022-08-03T02:06:26;101616.22;;;25.19;50.69
55656;BME280;41530;52.382;5.270;2022-08-03T02:09:15;101624.13;;;25.20;50.39
55656;BME280;41530;52.382;5.270;2022-08-03T02:11:45;101619.75;;;25.19;50.70
55656;BME280;41530;52.382;5.270;2022-08-03T02:14:13;101615.22;;;25.20;50.45
55656;BME280;41530;52.382;5.270;2022-08-03T02:16:42;101619.09;;;25.17;50.67
55656;BME280;41530;52.382;5.270;2022-08-03T02:19:10;101624.31;;;25.19;50.80
55656;BME280;41530;52.382;5.270;2022-08-03T02:21:37;101622.47;;;25.19;50.63
55656;BME280;41530;52.382;5.270;2022-08-03T02:24:24;101620.78;;;25.18;50.79
55656;BME280;41530;52.382;5.270;2022-08-03T02:26:53;101617.47;;;25.16;50.91
55656;BME280;41530;52.382;5.270;2022-08-03T02:29:24;101618.84;;;25.12;51.62
55656;BME280;41530;52.382;5.270;2022-08-03T02:32:10;101620.03;;;25.10;51.66
55656;BME280;41530;52.382;5.270;2022-08-03T02:34:39;101620.75;;;25.04;51.71
55656;BME280;41530;52.382;5.270;2022-08-03T02:37:09;101611.88;;;25.03;51.49
55656;BME280;41530;52.382;5.270;2022-08-03T02:39:39;101605.84;;;25.01;51.26
55656;BME280;41530;52.382;5.270;2022-08-03T02:42:08;101602.13;;;25.02;51.40
55656;BME280;41530;52.382;5.270;2022-08-03T02:44:39;101593.03;;;25.03;51.39
55656;BME280;41530;52.382;5.270;2022-08-03T02:47:13;101601.91;;;25.04;51.08
55656;BME280;41530;52.382;5.270;2022-08-03T02:49:41;101600.06;;;25.04;51.28
55656;BME280;41530;52.382;5.270;2022-08-03T02:52:20;101601.09;;;25.03;51.42
55656;BME280;41530;52.382;5.270;2022-08-03T02:54:48;101601.09;;;25.03;51.42
55656;BME280;41530;52.382;5.270;2022-08-03T02:57:17;101601.72;;;25.05;51.70
55656;BME280;41530;52.382;5.270;2022-08-03T02:59:45;101594.66;;;25.04;51.20
55656;BME280;41530;52.382;5.270;2022-08-03T03:02:13;101596.53;;;25.04;51.41
55656;BME280;41530;52.382;5.270;2022-08-03T03:04:41;101597.19;;;25.06;51.15
55656;BME280;41530;52.382;5.270;2022-08-03T03:07:29;101588.94;;;25.07;51.08
55656;BME280;41530;52.382;5.270;2022-08-03T03:10:13;101600.72;;;25.06;51.33
55656;BME280;41530;52.382;5.270;2022-08-03T03:12:39;101595.06;;;25.01;51.94
55656;BME280;41530;52.382;5.270;2022-08-03T03:15:08;101595.25;;;25.00;51.85
55656;BME280;41530;52.382;5.270;2022-08-03T03:17:36;101595.25;;;25.00;51.40
55656;BME280;41530;52.382;5.270;2022-08-03T03:20:03;101585.50;;;24.99;51.49
55656;BME280;41530;52.382;5.270;2022-08-03T03:22:32;101593.38;;;25.00;51.25
55656;BME280;41530;52.382;5.270;2022-08-03T03:25:00;101602.13;;;25.02;51.53
55656;BME280;41530;52.382;5.270;2022-08-03T03:27:27;101599.22;;;25.04;51.23
55656;BME280;41530;52.382;5.270;2022-08-03T03:29:56;101594.66;;;25.04;51.33
55656;BME280;41530;52.382;5.270;2022-08-03T03:32:23;101593.84;;;25.04;51.42
55656;BME280;41530;52.382;5.270;2022-08-03T03:34:52;101601.09;;;25.03;51.13
55656;BME280;41530;52.382;5.270;2022-08-03T03:37:19;101595.91;;;25.02;51.62
55656;BME280;41530;52.382;5.270;2022-08-03T03:39:46;101595.41;;;24.98;52.18
55656;BME280;41530;52.382;5.270;2022-08-03T03:42:12;101605.34;;;24.98;51.43
55656;BME280;41530;52.382;5.270;2022-08-03T03:44:39;101594.59;;;24.98;51.85
55656;BME280;41530;52.382;5.270;2022-08-03T03:47:06;101600.97;;;24.97;51.77
55656;BME280;41530;52.382;5.270;2022-08-03T03:49:33;101599.13;;;24.97;51.50
55656;BME280;41530;52.382;5.270;2022-08-03T03:51:59;101598.28;;;24.97;51.77
55656;BME280;41530;52.382;5.270;2022-08-03T03:54:41;101597.44;;;24.96;51.90
55656;BME280;41530;52.382;5.270;2022-08-03T03:57:08;101594.94;;;24.95;51.57
55656;BME280;41530;52.382;5.270;2022-08-03T03:59:40;101598.28;;;24.97;51.37
55656;BME280;41530;52.382;5.270;2022-08-03T04:02:08;101594.75;;;24.96;51.56
55656;BME280;41530;52.382;5.270;2022-08-03T04:04:35;101592.06;;;24.96;51.41
55656;BME280;41530;52.382;5.270;2022-08-03T04:07:22;101602.31;;;24.93;52.25
55656;BME280;41530;52.382;5.270;2022-08-03T04:10:22;101598.78;;;24.92;52.38
55656;BME280;41530;52.382;5.270;2022-08-03T04:13:11;101600.50;;;24.93;51.81
55656;BME280;41530;52.382;5.270;2022-08-03T04:15:40;101608.72;;;24.92;51.77
55656;BME280;41530;52.382;5.270;2022-08-03T04:18:10;101601.66;;;24.91;52.23
55656;BME280;41530;52.382;5.270;2022-08-03T04:20:44;101604.75;;;24.88;52.22
55656;BME280;41530;52.382;5.270;2022-08-03T04:23:13;101603.06;;;24.86;51.56
55656;BME280;41530;52.382;5.270;2022-08-03T04:25:42;101602.22;;;24.86;52.07
55656;BME280;41530;52.382;5.270;2022-08-03T04:28:09;101599.38;;;24.88;51.81
55656;BME280;41530;52.382;5.270;2022-08-03T04:30:58;101600.19;;;24.88;52.10
55656;BME280;41530;52.382;5.270;2022-08-03T04:33:25;101607.63;;;24.86;51.89
55656;BME280;41530;52.382;5.270;2022-08-03T04:35:57;101599.53;;;24.86;52.00
55656;BME280;41530;52.382;5.270;2022-08-03T04:38:30;101613.19;;;24.84;52.04
55656;BME280;41530;52.382;5.270;2022-08-03T04:40:59;101605.09;;;24.84;51.79
55656;BME280;41530;52.382;5.270;2022-08-03T04:43:26;101611.50;;;24.83;51.94
55656;BME280;41530;52.382;5.270;2022-08-03T04:45:55;101620.78;;;24.81;52.11
55656;BME280;41530;52.382;5.270;2022-08-03T04:48:22;101623.28;;;24.82;51.87
55656;BME280;41530;52.382;5.270;2022-08-03T04:50:49;101622.25;;;24.83;51.87
55656;BME280;41530;52.382;5.270;2022-08-03T04:53:17;101625.13;;;24.82;52.04
55656;BME280;41530;52.382;5.270;2022-08-03T04:55:45;101630.53;;;24.82;51.96
55656;BME280;41530;52.382;5.270;2022-08-03T04:58:11;101635.72;;;24.83;52.05
55656;BME280;41530;52.382;5.270;2022-08-03T05:00:38;101626.81;;;24.83;51.83
55656;BME280;41530;52.382;5.270;2022-08-03T05:03:04;101626.81;;;24.83;51.98
55656;BME280;41530;52.382;5.270;2022-08-03T05:05:53;101624.13;;;24.83;52.49
55656;BME280;41530;52.382;5.270;2022-08-03T05:08:27;101630.34;;;24.83;52.22
55656;BME280;41530;52.382;5.270;2022-08-03T05:10:55;101630.53;;;24.82;52.41
55656;BME280;41530;52.382;5.270;2022-08-03T05:13:24;101644.81;;;24.82;52.29
55656;BME280;41530;52.382;5.270;2022-08-03T05:15:51;101636.91;;;24.81;52.45
55656;BME280;41530;52.382;5.270;2022-08-03T05:18:17;101639.59;;;24.81;52.27
55656;BME280;41530;52.382;5.270;2022-08-03T05:20:44;101641.28;;;24.82;52.23
55656;BME280;41530;52.382;5.270;2022-08-03T05:23:11;101642.28;;;24.81;52.34
55656;BME280;41530;52.382;5.270;2022-08-03T05:25:37;101642.13;;;24.82;52.14
55656;BME280;41530;52.382;5.270;2022-08-03T05:28:04;101640.09;;;24.84;52.08
55656;BME280;41530;52.382;5.270;2022-08-03T05:30:31;101638.41;;;24.83;52.15
55656;BME280;41530;52.382;5.270;2022-08-03T05:33:02;101639.91;;;24.86;52.06
55656;BME280;41530;52.382;5.270;2022-08-03T05:35:30;101634.53;;;24.86;52.35
55656;BME280;41530;52.382;5.270;2022-08-03T05:38:17;101640.75;;;24.86;52.28
55656;BME280;41530;52.382;5.270;2022-08-03T05:40:53;101637.03;;;24.88;52.21
55656;BME280;41530;52.382;5.270;2022-08-03T05:43:40;101636.66;;;24.91;51.89
55656;BME280;41530;52.382;5.270;2022-08-03T05:46:07;101637.19;;;24.94;51.94
55656;BME280;41530;52.382;5.270;2022-08-03T05:48:38;101638.66;;;24.97;51.88
55656;BME280;41530;52.382;5.270;2022-08-03T05:51:05;101635.44;;;25.01;51.88
55656;BME280;41530;52.382;5.270;2022-08-03T05:53:33;101630.91;;;25.02;51.91
55656;BME280;41530;52.382;5.270;2022-08-03T05:56:00;101642.97;;;25.06;52.29
55656;BME280;41530;52.382;5.270;2022-08-03T05:58:45;101633.19;;;25.05;52.42
55656;BME280;41530;52.382;5.270;2022-08-03T06:01:14;101631.72;;;25.02;52.20
55656;BME280;41530;52.382;5.270;2022-08-03T06:03:41;101631.53;;;25.04;52.25
55656;BME280;41530;52.382;5.270;2022-08-03T06:06:08;101631.34;;;25.05;52.29
55656;BME280;41530;52.382;5.270;2022-08-03T06:08:34;101632.84;;;25.08;52.08
55656;BME280;41530;52.382;5.270;2022-08-03T06:11:02;101636.19;;;25.10;51.61
55656;BME280;41530;52.382;5.270;2022-08-03T06:13:29;101630.81;;;25.10;51.78
55656;BME280;41530;52.382;5.270;2022-08-03T06:15:55;101642.91;;;25.14;52.09
55656;BME280;41530;52.382;5.270;2022-08-03T06:18:22;101637.34;;;25.15;52.05
55656;BME280;41530;52.382;5.270;2022-08-03T06:20:50;101637.13;;;25.17;51.89
55656;BME280;41530;52.382;5.270;2022-08-03T06:23:17;101639.19;;;25.15;52.18
55656;BME280;41530;52.382;5.270;2022-08-03T06:25:44;101641.69;;;25.16;51.99
55656;BME280;41530;52.382;5.270;2022-08-03T06:28:11;101635.47;;;25.16;52.12
55656;BME280;41530;52.382;5.270;2022-08-03T06:30:59;101645.69;;;25.20;51.85
55656;BME280;41530;52.382;5.270;2022-08-03T06:33:26;101645.31;;;25.24;52.03
55656;BME280;41530;52.382;5.270;2022-08-03T06:36:13;101640.78;;;25.24;52.07
55656;BME280;41530;52.382;5.270;2022-08-03T06:38:39;101632.34;;;25.27;52.25
55656;BME280;41530;52.382;5.270;2022-08-03T06:41:06;101640.22;;;25.29;52.00
55656;BME280;41530;52.382;5.270;2022-08-03T06:43:32;101639.22;;;25.30;51.97
55656;BME280;41530;52.382;5.270;2022-08-03T06:46:03;101653.13;;;25.33;51.86
55656;BME280;41530;52.382;5.270;2022-08-03T06:48:30;101653.13;;;25.33;52.18
55656;BME280;41530;52.382;5.270;2022-08-03T06:50:57;101645.69;;;25.35;52.10
55656;BME280;41530;52.382;5.270;2022-08-03T06:53:24;101649.22;;;25.36;52.19
55656;BME280;41530;52.382;5.270;2022-08-03T06:55:51;101655.47;;;25.36;52.05
55656;BME280;41530;52.382;5.270;2022-08-03T06:58:20;101639.66;;;25.33;51.94
55656;BME280;41530;52.382;5.270;2022-08-03T07:00:47;101651.38;;;25.40;51.78
55656;BME280;41530;52.382;5.270;2022-08-03T07:03:13;101650.19;;;25.43;51.72
55656;BME280;41530;52.382;5.270;2022-08-03T07:05:41;101649.78;;;25.46;52.00
55656;BME280;41530;52.382;5.270;2022-08-03T07:08:08;101643.22;;;25.48;52.18
55656;BME280;41530;52.382;5.270;2022-08-03T07:10:35;101648.41;;;25.50;51.54
55656;BME280;41530;52.382;5.270;2022-08-03T07:13:03;101656.13;;;25.53;51.83
55656;BME280;41530;52.382;5.270;2022-08-03T07:15:29;101654.94;;;25.55;51.69
55656;BME280;41530;52.382;5.270;2022-08-03T07:18:16;101660.94;;;25.57;52.05
55656;BME280;41530;52.382;5.270;2022-08-03T07:20:53;101656.22;;;25.60;52.05
55656;BME280;41530;52.382;5.270;2022-08-03T07:23:20;101663.13;;;25.62;52.00
55656;BME280;41530;52.382;5.270;2022-08-03T07:25:46;101661.09;;;25.64;51.85
55656;BME280;41530;52.382;5.270;2022-08-03T07:28:13;101673.38;;;25.67;51.90
55656;BME280;41530;52.382;5.270;2022-08-03T07:30:39;101674.84;;;25.69;51.75
55656;BME280;41530;52.382;5.270;2022-08-03T07:33:06;101676.97;;;25.74;51.78
55656;BME280;41530;52.382;5.270;2022-08-03T07:35:32;101675.78;;;25.76;51.69
55656;BME280;41530;52.382;5.270;2022-08-03T07:37:59;101672.72;;;25.79;51.60
55656;BME280;41530;52.382;5.270;2022-08-03T07:40:26;101677.34;;;25.85;51.48
55656;BME280;41530;52.382;5.270;2022-08-03T07:42:57;101680.50;;;25.89;51.65
55656;BME280;41530;52.382;5.270;2022-08-03T07:45:23;101681.16;;;25.91;51.62
55656;BME280;41530;52.382;5.270;2022-08-03T07:47:51;101685.53;;;25.92;51.68
55656;BME280;41530;52.382;5.270;2022-08-03T07:50:20;101687.03;;;25.95;51.49
55656;BME280;41530;52.382;5.270;2022-08-03T07:52:47;101687.69;;;25.97;51.42
55656;BME280;41530;52.382;5.270;2022-08-03T07:55:14;101682.72;;;26.00;51.43
55656;BME280;41530;52.382;5.270;2022-08-03T07:57:41;101690.44;;;26.03;51.47
55656;BME280;41530;52.382;5.270;2022-08-03T08:00:16;101686.53;;;26.06;51.93
55656;BME280;41530;52.382;5.270;2022-08-03T08:02:43;101697.31;;;26.06;51.80
55656;BME280;41530;52.382;5.270;2022-08-03T08:05:11;101687.38;;;26.06;51.51
55656;BME280;41530;52.382;5.270;2022-08-03T08:07:38;101704.75;;;26.04;51.63
55656;BME280;41530;52.382;5.270;2022-08-03T08:10:07;101696.84;;;26.02;51.41
55656;BME280;41530;52.382;5.270;2022-08-03T08:12:36;101696.66;;;26.04;51.82
55656;BME280;41530;52.382;5.270;2022-08-03T08:15:04;101691.09;;;26.05;51.63
55656;BME280;41530;52.382;5.270;2022-08-03T08:17:43;101695.94;;;26.10;51.71
55656;BME280;41530;52.382;5.270;2022-08-03T08:20:15;101686.25;;;26.15;51.73
55656;BME280;41530;52.382;5.270;2022-08-03T08:22:57;101693.78;;;26.20;51.45
55656;BME280;41530;52.382;5.270;2022-08-03T08:25:27;101699.59;;;26.23;51.78
55656;BME280;41530;52.382;5.270;2022-08-03T08:27:54;101692.16;;;26.25;51.11
55656;BME280;41530;52.382;5.270;2022-08-03T08:30:41;101695.38;;;26.29;51.27
55656;BME280;41530;52.382;5.270;2022-08-03T08:33:07;101689.59;;;26.32;51.30
55656;BME280;41530;52.382;5.270;2022-08-03T08:35:49;101705.66;;;26.40;51.02
55656;BME280;41530;52.382;5.270;2022-08-03T08:38:15;101705.09;;;26.45;51.20
55656;BME280;41530;52.382;5.270;2022-08-03T08:40:42;101697.28;;;26.50;51.14
55656;BME280;41530;52.382;5.270;2022-08-03T08:43:08;101697.28;;;26.50;51.19
55656;BME280;41530;52.382;5.270;2022-08-03T08:45:35;101695.84;;;26.54;51.26
55656;BME280;41530;52.382;5.270;2022-08-03T08:48:03;101698.19;;;26.57;51.15
55656;BME280;41530;52.382;5.270;2022-08-03T08:50:36;101688.88;;;26.59;51.24
55656;BME280;41530;52.382;5.270;2022-08-03T08:53:06;101699.91;;;26.65;50.97
55656;BME280;41530;52.382;5.270;2022-08-03T08:55:45;101696.00;;;26.67;51.03
55656;BME280;41530;52.382;5.270;2022-08-03T08:58:28;101697.94;;;26.73;51.18
55656;BME280;41530;52.382;5.270;2022-08-03T09:00:55;101695.88;;;26.75;50.83
55656;BME280;41530;52.382;5.270;2022-08-03T09:03:22;101701.34;;;26.82;50.87
55656;BME280;41530;52.382;5.270;2022-08-03T09:05:58;101693.06;;;26.83;50.63
55656;BME280;41530;52.382;5.270;2022-08-03T09:08:25;101697.41;;;26.84;50.53
55656;BME280;41530;52.382;5.270;2022-08-03T09:10:51;101694.53;;;26.86;50.64
55656;BME280;41530;52.382;5.270;2022-08-03T09:13:18;101693.31;;;26.88;50.71
55656;BME280;41530;52.382;5.270;2022-08-03T09:15:44;101696.44;;;26.92;50.37
55656;BME280;41530;52.382;5.270;2022-08-03T09:18:29;101689.84;;;26.94;50.66
55656;BME280;41530;52.382;5.270;2022-08-03T09:21:24;101700.28;;;26.98;50.38
55656;BME280;41530;52.382;5.270;2022-08-03T09:24:01;101702.41;;;27.02;50.36
55656;BME280;41530;52.382;5.270;2022-08-03T09:26:35;101701.16;;;27.05;50.08
55656;BME280;41530;52.382;5.270;2022-08-03T09:29:05;101700.13;;;27.06;50.38
55656;BME280;41530;52.382;5.270;2022-08-03T09:31:43;101702.66;;;27.07;50.21
55656;BME280;41530;52.382;5.270;2022-08-03T09:34:15;101696.03;;;27.10;50.17
55656;BME280;41530;52.382;5.270;2022-08-03T09:36:47;101692.09;;;27.12;50.22
55656;BME280;41530;52.382;5.270;2022-08-03T09:39:21;101691.91;;;27.14;50.32
55656;BME280;41530;52.382;5.270;2022-08-03T09:42:10;101700.66;;;27.16;49.90
55656;BME280;41530;52.382;5.270;2022-08-03T09:44:50;101699.41;;;27.18;50.11
55656;BME280;41530;52.382;5.270;2022-08-03T09:47:28;101697.53;;;27.19;49.97
55656;BME280;41530;52.382;5.270;2022-08-03T09:50:00;101694.66;;;27.20;49.71
55656;BME280;41530;52.382;5.270;2022-08-03T09:52:35;101700.88;;;27.21;49.64
55656;BME280;41530;52.382;5.270;2022-08-03T09:55:16;101696.97;;;27.23;49.56
55656;BME280;41530;52.382;5.270;2022-08-03T09:58:05;101698.00;;;27.22;49.53
55656;BME280;41530;52.382;5.270;2022-08-03T10:00:51;101695.94;;;27.24;49.75
55656;BME280;41530;52.382;5.270;2022-08-03T10:03:19;101702.38;;;27.23;49.82
55656;BME280;41530;52.382;5.270;2022-08-03T10:05:46;101697.41;;;27.27;49.50
55656;BME280;41530;52.382;5.270;2022-08-03T10:08:18;101701.38;;;27.31;49.46
55656;BME280;41530;52.382;5.270;2022-08-03T10:10:46;101703.69;;;27.34;49.79
55656;BME280;41530;52.382;5.270;2022-08-03T10:13:17;101711.81;;;27.34;49.49
55656;BME280;41530;52.382;5.270;2022-08-03T10:15:45;101699.97;;;27.35;49.44
55656;BME280;41530;52.382;5.270;2022-08-03T10:18:32;101709.75;;;27.36;49.64
55656;BME280;41530;52.382;5.270;2022-08-03T10:21:07;101709.34;;;27.39;49.32
55656;BME280;41530;52.382;5.270;2022-08-03T10:23:37;101703.75;;;27.41;49.54
55656;BME280;41530;52.382;5.270;2022-08-03T10:26:06;101713.53;;;27.42;49.62
55656;BME280;41530;52.382;5.270;2022-08-03T10:28:35;101707.91;;;27.43;49.57
55656;BME280;41530;52.382;5.270;2022-08-03T10:31:11;101703.56;;;27.42;49.27
55656;BME280;41530;52.382;5.270;2022-08-03T10:33:43;101706.03;;;27.44;49.43
55656;BME280;41530;52.382;5.270;2022-08-03T10:36:22;101700.63;;;27.44;49.19
55656;BME280;41530;52.382;5.270;2022-08-03T10:38:51;101689.84;;;27.44;49.29
55656;BME280;41530;52.382;5.270;2022-08-03T10:41:20;101696.91;;;27.45;49.22
55656;BME280;41530;52.382;5.270;2022-08-03T10:44:07;101703.34;;;27.44;49.03
55656;BME280;41530;52.382;5.270;2022-08-03T10:46:35;101697.09;;;27.43;49.58
55656;BME280;41530;52.382;5.270;2022-08-03T10:49:12;101694.63;;;27.42;49.27
55656;BME280;41530;52.382;5.270;2022-08-03T10:51:41;101699.00;;;27.43;49.41
55656;BME280;41530;52.382;5.270;2022-08-03T10:54:37;101698.16;;;27.42;49.25
55656;BME280;41530;52.382;5.270;2022-08-03T10:57:47;101693.78;;;27.41;49.51
55656;BME280;41530;52.382;5.270;2022-08-03T11:00:26;101691.09;;;27.41;49.26
55656;BME280;41530;52.382;5.270;2022-08-03T11:03:06;101683.81;;;27.42;49.34
55656;BME280;41530;52.382;5.270;2022-08-03T11:05:42;101685.50;;;27.43;48.97
55656;BME280;41530;52.382;5.270;2022-08-03T11:08:20;101681.13;;;27.42;49.05
55656;BME280;41530;52.382;5.270;2022-08-03T11:10:47;101684.44;;;27.44;49.37
55656;BME280;41530;52.382;5.270;2022-08-03T11:13:16;101685.25;;;27.44;49.15
55656;BME280;41530;52.382;5.270;2022-08-03T11:15:45;101682.56;;;27.44;49.40
55656;BME280;41530;52.382;5.270;2022-08-03T11:18:13;101682.56;;;27.44;49.21
55656;BME280;41530;52.382;5.270;2022-08-03T11:20:52;101676.97;;;27.46;48.98
55656;BME280;41530;52.382;5.270;2022-08-03T11:23:39;101687.78;;;27.46;48.98
55656;BME280;41530;52.382;5.270;2022-08-03T11:26:26;101682.56;;;27.44;49.31
55656;BME280;41530;52.382;5.270;2022-08-03T11:29:29;101693.19;;;27.46;49.02
55656;BME280;41530;52.382;5.270;2022-08-03T11:31:56;101695.88;;;27.46;48.96
55656;BME280;41530;52.382;5.270;2022-08-03T11:34:23;101697.75;;;27.45;48.98
55656;BME280;41530;52.382;5.270;2022-08-03T11:37:18;101686.53;;;27.48;48.87
55656;BME280;41530;52.382;5.270;2022-08-03T11:39:48;101689.06;;;27.50;49.04
55656;BME280;41530;52.382;5.270;2022-08-03T11:44:52;101681.59;;;27.52;49.07
55656;BME280;41530;52.382;5.270;2022-08-03T11:47:20;101682.22;;;27.54;48.88
55656;BME280;41530;52.382;5.270;2022-08-03T11:49:48;101673.09;;;27.55;48.82
55656;BME280;41530;52.382;5.270;2022-08-03T11:52:16;101679.34;;;27.55;48.79
55656;BME280;41530;52.382;5.270;2022-08-03T11:54:43;101673.94;;;27.55;48.49
55656;BME280;41530;52.382;5.270;2022-08-03T11:57:10;101674.56;;;27.57;48.56
55656;BME280;41530;52.382;5.270;2022-08-03T11:59:37;101672.69;;;27.58;48.62
55656;BME280;41530;52.382;5.270;2022-08-03T12:02:11;101676.06;;;27.60;48.26
55656;BME280;41530;52.382;5.270;2022-08-03T12:05:06;101692.06;;;27.61;48.36
55656;BME280;41530;52.382;5.270;2022-08-03T12:07:33;101686.84;;;27.60;48.17
55656;BME280;41530;52.382;5.270;2022-08-03T12:10:19;101682.28;;;27.60;48.10
55656;BME280;41530;52.382;5.270;2022-08-03T12:12:57;101681.25;;;27.61;47.94
55656;BME280;41530;52.382;5.270;2022-08-03T12:15:26;101673.16;;;27.61;48.22
55656;BME280;41530;52.382;5.270;2022-08-03T12:17:52;101680.22;;;27.62;48.12
55656;BME280;41530;52.382;5.270;2022-08-03T12:20:25;101684.59;;;27.63;47.53
55656;BME280;41530;52.382;5.270;2022-08-03T12:23:04;101678.38;;;27.63;47.59
55656;BME280;41530;52.382;5.270;2022-08-03T12:25:33;101681.91;;;27.63;47.97
55656;BME280;41530;52.382;5.270;2022-08-03T12:30:53;101678.81;;;27.66;47.58
55656;BME280;41530;52.382;5.270;2022-08-03T12:33:26;101670.25;;;27.63;47.31
55656;BME280;41530;52.382;5.270;2022-08-03T12:36:07;101668.41;;;27.70;46.98
55656;BME280;41530;52.382;5.270;2022-08-03T12:38:37;101658.44;;;27.71;47.19
55656;BME280;41530;52.382;5.270;2022-08-03T12:41:09;101660.94;;;27.72;47.21
55656;BME280;41530;52.382;5.270;2022-08-03T12:43:48;101669.69;;;27.74;46.90
55656;BME280;41530;52.382;5.270;2022-08-03T12:46:16;101659.91;;;27.73;46.80
55656;BME280;41530;52.382;5.270;2022-08-03T12:49:09;101655.13;;;27.75;46.66
55656;BME280;41530;52.382;5.270;2022-08-03T12:51:55;101660.34;;;27.77;46.08
55656;BME280;41530;52.382;5.270;2022-08-03T12:54:27;101663.88;;;27.77;46.58
55656;BME280;41530;52.382;5.270;2022-08-03T12:59:31;101656.41;;;27.79;46.39
55656;BME280;41530;52.382;5.270;2022-08-03T13:02:13;101655.19;;;27.82;46.30
55656;BME280;41530;52.382;5.270;2022-08-03T13:04:40;101657.66;;;27.83;46.64
55656;BME280;41530;52.382;5.270;2022-08-03T13:07:08;101657.47;;;27.85;46.38
55656;BME280;41530;52.382;5.270;2022-08-03T13:09:43;101660.81;;;27.87;46.38
55656;BME280;41530;52.382;5.270;2022-08-03T13:12:21;101662.47;;;27.88;45.96
55656;BME280;41530;52.382;5.270;2022-08-03T13:14:55;101652.31;;;27.90;46.31
55656;BME280;41530;52.382;5.270;2022-08-03T13:17:21;101656.69;;;27.91;46.50
55656;BME280;41530;52.382;5.270;2022-08-03T13:19:48;101650.88;;;27.94;46.79
55656;BME280;41530;52.382;5.270;2022-08-03T13:22:20;101647.97;;;27.95;46.27
55656;BME280;41530;52.382;5.270;2022-08-03T13:24:50;101652.94;;;27.98;45.92
55656;BME280;41530;52.382;5.270;2022-08-03T13:27:17;101655.47;;;28.00;45.93
55656;BME280;41530;52.382;5.270;2022-08-03T13:30:04;101649.00;;;28.01;46.08
55656;BME280;41530;52.382;5.270;2022-08-03T13:32:32;101653.19;;;28.03;46.47